sensor_id;sensor_type;location;lat;lon;timestamp;temperature;humidity
68235;DHT22;55052;52.056;5.296;2022-07-09T00:01:00;19.00;66.30
68235;DHT22;55052;52.056;5.296;2022-07-09T00:03:27;18.90;66.30
68235;DHT22;55052;52.056;5.296;2022-07-09T00:05:54;18.90;66.20
68235;DHT22;55052;52.056;5.296;2022-07-09T00:08:21;18.90;66.20
68235;DHT22;55052;52.056;5.296;2022-07-09T00:10:48;18.80;66.20
68235;DHT22;55052;52.056;5.296;2022-07-09T00:13:14;18.70;66.30
68235;DHT22;55052;52.056;5.296;2022-07-09T00:15:41;18.70;66.20
68235;DHT22;55052;52.056;5.296;2022-07-09T00:18:09;18.70;66.30
68235;DHT22;55052;52.056;5.296;2022-07-09T00:20:36;18.60;66.40
68235;DHT22;55052;52.056;5.296;2022-07-09T00:23:03;18.60;66.50
68235;DHT22;55052;52.056;5.296;2022-07-09T00:25:29;18.50;66.60
68235;DHT22;55052;52.056;5.296;2022-07-09T00:27:56;18.40;66.60
68235;DHT22;55052;52.056;5.296;2022-07-09T00:30:23;18.40;66.50
68235;DHT22;55052;52.056;5.296;2022-07-09T00:32:50;18.40;66.60
68235;DHT22;55052;52.056;5.296;2022-07-09T00:35:16;18.30;66.40
68235;DHT22;55052;52.056;5.296;2022-07-09T00:37:43;18.30;66.60
68235;DHT22;55052;52.056;5.296;2022-07-09T00:40:10;18.20;66.60
68235;DHT22;55052;52.056;5.296;2022-07-09T00:42:37;18.20;66.70
68235;DHT22;55052;52.056;5.296;2022-07-09T00:45:04;18.20;66.80
68235;DHT22;55052;52.056;5.296;2022-07-09T00:47:31;18.10;66.80
68235;DHT22;55052;52.056;5.296;2022-07-09T00:49:58;18.10;66.90
68235;DHT22;55052;52.056;5.296;2022-07-09T00:52:25;18.10;66.90
68235;DHT22;55052;52.056;5.296;2022-07-09T00:54:53;18.00;67.00
68235;DHT22;55052;52.056;5.296;2022-07-09T00:57:21;18.00;67.20
68235;DHT22;55052;52.056;5.296;2022-07-09T00:59:48;18.00;67.20
68235;DHT22;55052;52.056;5.296;2022-07-09T01:02:16;17.90;67.30
68235;DHT22;55052;52.056;5.296;2022-07-09T01:04:45;17.90;67.30
68235;DHT22;55052;52.056;5.296;2022-07-09T01:07:12;17.80;67.30
68235;DHT22;55052;52.056;5.296;2022-07-09T01:09:39;17.80;67.40
68235;DHT22;55052;52.056;5.296;2022-07-09T01:12:06;17.70;67.50
68235;DHT22;55052;52.056;5.296;2022-07-09T01:14:33;17.70;67.60
68235;DHT22;55052;52.056;5.296;2022-07-09T01:17:02;17.70;67.70
68235;DHT22;55052;52.056;5.296;2022-07-09T01:19:31;17.60;67.70
68235;DHT22;55052;52.056;5.296;2022-07-09T01:21:58;17.60;67.60
68235;DHT22;55052;52.056;5.296;2022-07-09T01:24:32;17.60;67.70
68235;DHT22;55052;52.056;5.296;2022-07-09T01:26:59;17.50;67.70
68235;DHT22;55052;52.056;5.296;2022-07-09T01:29:26;17.50;67.90
68235;DHT22;55052;52.056;5.296;2022-07-09T01:31:53;17.50;67.90
68235;DHT22;55052;52.056;5.296;2022-07-09T01:34:20;17.50;68.00
68235;DHT22;55052;52.056;5.296;2022-07-09T01:36:46;17.40;68.10
68235;DHT22;55052;52.056;5.296;2022-07-09T01:39:13;17.40;68.10
68235;DHT22;55052;52.056;5.296;2022-07-09T01:41:40;17.40;68.20
68235;DHT22;55052;52.056;5.296;2022-07-09T01:44:07;17.30;68.20
68235;DHT22;55052;52.056;5.296;2022-07-09T01:46:34;17.30;68.00
68235;DHT22;55052;52.056;5.296;2022-07-09T01:49:02;17.20;68.10
68235;DHT22;55052;52.056;5.296;2022-07-09T01:51:29;17.20;68.10
68235;DHT22;55052;52.056;5.296;2022-07-09T01:53:55;17.20;68.20
68235;DHT22;55052;52.056;5.296;2022-07-09T01:56:22;17.20;68.10
68235;DHT22;55052;52.056;5.296;2022-07-09T01:58:49;17.10;68.00
68235;DHT22;55052;52.056;5.296;2022-07-09T02:01:16;17.00;68.10
68235;DHT22;55052;52.056;5.296;2022-07-09T02:03:43;17.00;68.10
68235;DHT22;55052;52.056;5.296;2022-07-09T02:06:09;17.00;68.00
68235;DHT22;55052;52.056;5.296;2022-07-09T02:08:36;17.00;68.20
68235;DHT22;55052;52.056;5.296;2022-07-09T02:11:06;16.90;68.20
68235;DHT22;55052;52.056;5.296;2022-07-09T02:13:33;16.90;68.10
68235;DHT22;55052;52.056;5.296;2022-07-09T02:16:00;16.90;68.10
68235;DHT22;55052;52.056;5.296;2022-07-09T02:18:28;16.90;68.30
68235;DHT22;55052;52.056;5.296;2022-07-09T02:20:55;16.80;68.50
68235;DHT22;55052;52.056;5.296;2022-07-09T02:23:22;16.80;68.70
68235;DHT22;55052;52.056;5.296;2022-07-09T02:25:50;16.70;68.60
68235;DHT22;55052;52.056;5.296;2022-07-09T02:28:17;16.70;68.70
68235;DHT22;55052;52.056;5.296;2022-07-09T02:30:43;16.70;68.70
68235;DHT22;55052;52.056;5.296;2022-07-09T02:33:10;16.70;68.80
68235;DHT22;55052;52.056;5.296;2022-07-09T02:35:37;16.60;68.80
68235;DHT22;55052;52.056;5.296;2022-07-09T02:38:04;16.60;68.90
68235;DHT22;55052;52.056;5.296;2022-07-09T02:40:30;16.60;69.00
68235;DHT22;55052;52.056;5.296;2022-07-09T02:42:57;16.60;69.00
68235;DHT22;55052;52.056;5.296;2022-07-09T02:45:24;16.50;69.00
68235;DHT22;55052;52.056;5.296;2022-07-09T02:47:50;16.50;69.10
68235;DHT22;55052;52.056;5.296;2022-07-09T02:50:17;16.50;69.00
68235;DHT22;55052;52.056;5.296;2022-07-09T02:52:44;16.50;69.10
68235;DHT22;55052;52.056;5.296;2022-07-09T02:55:11;16.50;69.20
68235;DHT22;55052;52.056;5.296;2022-07-09T02:57:37;16.40;69.20
68235;DHT22;55052;52.056;5.296;2022-07-09T03:00:05;16.40;69.30
68235;DHT22;55052;52.056;5.296;2022-07-09T03:02:32;16.40;69.50
68235;DHT22;55052;52.056;5.296;2022-07-09T03:04:59;16.40;69.60
68235;DHT22;55052;52.056;5.296;2022-07-09T03:07:25;16.40;69.60
68235;DHT22;55052;52.056;5.296;2022-07-09T03:09:52;16.40;69.50
68235;DHT22;55052;52.056;5.296;2022-07-09T03:12:19;16.40;69.50
68235;DHT22;55052;52.056;5.296;2022-07-09T03:14:45;16.40;69.40
68235;DHT22;55052;52.056;5.296;2022-07-09T03:17:12;16.40;69.40
68235;DHT22;55052;52.056;5.296;2022-07-09T03:19:39;16.40;69.40
68235;DHT22;55052;52.056;5.296;2022-07-09T03:22:06;16.40;69.50
68235;DHT22;55052;52.056;5.296;2022-07-09T03:24:32;16.40;69.40
68235;DHT22;55052;52.056;5.296;2022-07-09T03:26:59;16.40;69.40
68235;DHT22;55052;52.056;5.296;2022-07-09T03:29:26;16.40;69.50
68235;DHT22;55052;52.056;5.296;2022-07-09T03:31:53;16.40;69.50
68235;DHT22;55052;52.056;5.296;2022-07-09T03:34:20;16.40;69.60
68235;DHT22;55052;52.056;5.296;2022-07-09T03:36:46;16.40;69.60
68235;DHT22;55052;52.056;5.296;2022-07-09T03:39:13;16.30;69.60
68235;DHT22;55052;52.056;5.296;2022-07-09T03:41:40;16.40;69.60
68235;DHT22;55052;52.056;5.296;2022-07-09T03:44:07;16.40;69.60
68235;DHT22;55052;52.056;5.296;2022-07-09T03:46:35;16.40;69.70
68235;DHT22;55052;52.056;5.296;2022-07-09T03:49:01;16.40;69.70
68235;DHT22;55052;52.056;5.296;2022-07-09T03:51:28;16.30;69.70
68235;DHT22;55052;52.056;5.296;2022-07-09T03:53:55;16.40;69.80
68235;DHT22;55052;52.056;5.296;2022-07-09T03:56:21;16.30;69.70
68235;DHT22;55052;52.056;5.296;2022-07-09T03:58:48;16.30;69.70
68235;DHT22;55052;52.056;5.296;2022-07-09T04:01:15;16.30;69.70
68235;DHT22;55052;52.056;5.296;2022-07-09T04:03:42;16.30;69.60
68235;DHT22;55052;52.056;5.296;2022-07-09T04:06:09;16.30;69.70
68235;DHT22;55052;52.056;5.296;2022-07-09T04:08:35;16.30;69.80
68235;DHT22;55052;52.056;5.296;2022-07-09T04:11:03;16.30;69.90
68235;DHT22;55052;52.056;5.296;2022-07-09T04:13:30;16.30;70.00
68235;DHT22;55052;52.056;5.296;2022-07-09T04:15:57;16.30;70.10
68235;DHT22;55052;52.056;5.296;2022-07-09T04:18:24;16.30;70.10
68235;DHT22;55052;52.056;5.296;2022-07-09T04:20:51;16.30;70.30
68235;DHT22;55052;52.056;5.296;2022-07-09T04:23:17;16.40;70.50
68235;DHT22;55052;52.056;5.296;2022-07-09T04:25:44;16.40;70.60
68235;DHT22;55052;52.056;5.296;2022-07-09T04:28:12;16.30;70.60
68235;DHT22;55052;52.056;5.296;2022-07-09T04:30:39;16.40;70.90
68235;DHT22;55052;52.056;5.296;2022-07-09T04:33:07;16.40;71.00
68235;DHT22;55052;52.056;5.296;2022-07-09T04:35:33;16.50;71.70
68235;DHT22;55052;52.056;5.296;2022-07-09T04:38:02;16.50;70.90
68235;DHT22;55052;52.056;5.296;2022-07-09T04:40:30;16.50;71.00
68235;DHT22;55052;52.056;5.296;2022-07-09T04:42:56;16.50;71.00
68235;DHT22;55052;52.056;5.296;2022-07-09T04:45:23;16.60;71.30
68235;DHT22;55052;52.056;5.296;2022-07-09T04:47:50;16.60;71.20
68235;DHT22;55052;52.056;5.296;2022-07-09T04:50:16;16.70;71.40
68235;DHT22;55052;52.056;5.296;2022-07-09T04:52:43;16.70;71.60
68235;DHT22;55052;52.056;5.296;2022-07-09T04:55:11;16.80;71.70
68235;DHT22;55052;52.056;5.296;2022-07-09T04:57:38;16.80;71.80
68235;DHT22;55052;52.056;5.296;2022-07-09T05:00:05;16.90;71.80
68235;DHT22;55052;52.056;5.296;2022-07-09T05:02:32;16.90;71.80
68235;DHT22;55052;52.056;5.296;2022-07-09T05:04:59;17.00;71.90
68235;DHT22;55052;52.056;5.296;2022-07-09T05:07:26;17.00;72.00
68235;DHT22;55052;52.056;5.296;2022-07-09T05:09:52;17.10;72.00
68235;DHT22;55052;52.056;5.296;2022-07-09T05:12:19;17.20;72.30
68235;DHT22;55052;52.056;5.296;2022-07-09T05:14:46;17.20;72.40
68235;DHT22;55052;52.056;5.296;2022-07-09T05:17:13;17.30;72.60
68235;DHT22;55052;52.056;5.296;2022-07-09T05:19:40;17.30;72.60
68235;DHT22;55052;52.056;5.296;2022-07-09T05:22:07;17.40;72.70
68235;DHT22;55052;52.056;5.296;2022-07-09T05:24:33;17.50;72.90
68235;DHT22;55052;52.056;5.296;2022-07-09T05:27:00;17.50;72.80
68235;DHT22;55052;52.056;5.296;2022-07-09T05:29:27;17.60;72.80
68235;DHT22;55052;52.056;5.296;2022-07-09T05:31:54;17.70;73.00
68235;DHT22;55052;52.056;5.296;2022-07-09T05:34:21;17.70;73.20
68235;DHT22;55052;52.056;5.296;2022-07-09T05:36:48;17.80;73.20
68235;DHT22;55052;52.056;5.296;2022-07-09T05:39:14;17.90;73.30
68235;DHT22;55052;52.056;5.296;2022-07-09T05:41:42;17.90;73.20
68235;DHT22;55052;52.056;5.296;2022-07-09T05:44:08;18.00;73.20
68235;DHT22;55052;52.056;5.296;2022-07-09T05:46:38;18.00;73.40
68235;DHT22;55052;52.056;5.296;2022-07-09T05:49:05;18.10;73.50
68235;DHT22;55052;52.056;5.296;2022-07-09T05:51:32;18.20;73.60
68235;DHT22;55052;52.056;5.296;2022-07-09T05:53:59;18.30;73.60
68235;DHT22;55052;52.056;5.296;2022-07-09T05:56:25;18.30;73.70
68235;DHT22;55052;52.056;5.296;2022-07-09T05:58:52;18.40;73.80
68235;DHT22;55052;52.056;5.296;2022-07-09T06:01:19;18.50;74.00
68235;DHT22;55052;52.056;5.296;2022-07-09T06:03:52;18.50;73.90
68235;DHT22;55052;52.056;5.296;2022-07-09T06:06:19;18.60;74.10
68235;DHT22;55052;52.056;5.296;2022-07-09T06:08:46;18.70;74.10
68235;DHT22;55052;52.056;5.296;2022-07-09T06:11:13;18.80;74.20
68235;DHT22;55052;52.056;5.296;2022-07-09T06:13:39;18.80;74.20
68235;DHT22;55052;52.056;5.296;2022-07-09T06:16:06;18.90;74.30
68235;DHT22;55052;52.056;5.296;2022-07-09T06:18:33;18.90;74.40
68235;DHT22;55052;52.056;5.296;2022-07-09T06:21:00;19.00;74.50
68235;DHT22;55052;52.056;5.296;2022-07-09T06:23:28;19.00;74.50
68235;DHT22;55052;52.056;5.296;2022-07-09T06:25:55;19.10;74.60
68235;DHT22;55052;52.056;5.296;2022-07-09T06:28:21;19.20;74.50
68235;DHT22;55052;52.056;5.296;2022-07-09T06:30:48;19.20;74.40
68235;DHT22;55052;52.056;5.296;2022-07-09T06:33:15;19.30;75.40
68235;DHT22;55052;52.056;5.296;2022-07-09T06:35:42;19.40;74.60
68235;DHT22;55052;52.056;5.296;2022-07-09T06:38:08;19.40;74.70
68235;DHT22;55052;52.056;5.296;2022-07-09T06:40:35;19.40;74.70
68235;DHT22;55052;52.056;5.296;2022-07-09T06:43:02;19.50;74.80
68235;DHT22;55052;52.056;5.296;2022-07-09T06:45:30;19.50;74.80
68235;DHT22;55052;52.056;5.296;2022-07-09T06:47:56;19.50;74.80
68235;DHT22;55052;52.056;5.296;2022-07-09T06:50:23;19.60;74.80
68235;DHT22;55052;52.056;5.296;2022-07-09T06:52:50;19.70;75.00
68235;DHT22;55052;52.056;5.296;2022-07-09T06:55:16;19.70;75.00
68235;DHT22;55052;52.056;5.296;2022-07-09T06:57:43;19.70;75.00
68235;DHT22;55052;52.056;5.296;2022-07-09T07:00:10;19.80;75.00
68235;DHT22;55052;52.056;5.296;2022-07-09T07:02:37;19.80;75.00
68235;DHT22;55052;52.056;5.296;2022-07-09T07:05:04;19.90;75.00
68235;DHT22;55052;52.056;5.296;2022-07-09T07:07:31;20.00;75.00
68235;DHT22;55052;52.056;5.296;2022-07-09T07:09:58;20.00;74.80
68235;DHT22;55052;52.056;5.296;2022-07-09T07:12:25;20.10;74.90
68235;DHT22;55052;52.056;5.296;2022-07-09T07:14:52;20.20;74.90
68235;DHT22;55052;52.056;5.296;2022-07-09T07:17:18;20.30;74.80
68235;DHT22;55052;52.056;5.296;2022-07-09T07:19:45;20.40;74.60
68235;DHT22;55052;52.056;5.296;2022-07-09T07:22:12;20.40;74.40
68235;DHT22;55052;52.056;5.296;2022-07-09T07:24:39;20.60;74.20
68235;DHT22;55052;52.056;5.296;2022-07-09T07:27:05;20.70;74.20
68235;DHT22;55052;52.056;5.296;2022-07-09T07:29:32;20.70;73.90
68235;DHT22;55052;52.056;5.296;2022-07-09T07:31:59;20.80;73.60
68235;DHT22;55052;52.056;5.296;2022-07-09T07:34:26;20.90;73.20
68235;DHT22;55052;52.056;5.296;2022-07-09T07:36:53;21.00;73.00
68235;DHT22;55052;52.056;5.296;2022-07-09T07:39:20;21.00;72.60
68235;DHT22;55052;52.056;5.296;2022-07-09T07:41:51;21.10;72.10
68235;DHT22;55052;52.056;5.296;2022-07-09T07:44:18;21.20;71.80
68235;DHT22;55052;52.056;5.296;2022-07-09T07:46:45;21.20;71.50
68235;DHT22;55052;52.056;5.296;2022-07-09T07:49:12;21.20;72.00
68235;DHT22;55052;52.056;5.296;2022-07-09T07:51:38;21.30;71.10
68235;DHT22;55052;52.056;5.296;2022-07-09T07:54:06;21.30;70.90
68235;DHT22;55052;52.056;5.296;2022-07-09T07:56:33;21.30;70.90
68235;DHT22;55052;52.056;5.296;2022-07-09T07:59:03;21.30;70.60
68235;DHT22;55052;52.056;5.296;2022-07-09T08:01:30;21.30;70.30
68235;DHT22;55052;52.056;5.296;2022-07-09T08:03:56;21.40;70.30
68235;DHT22;55052;52.056;5.296;2022-07-09T08:06:23;21.40;70.30
68235;DHT22;55052;52.056;5.296;2022-07-09T08:08:50;21.50;70.30
68235;DHT22;55052;52.056;5.296;2022-07-09T08:11:18;21.50;70.20
68235;DHT22;55052;52.056;5.296;2022-07-09T08:13:45;21.50;69.90
68235;DHT22;55052;52.056;5.296;2022-07-09T08:16:11;21.60;69.70
68235;DHT22;55052;52.056;5.296;2022-07-09T08:18:38;21.60;69.60
68235;DHT22;55052;52.056;5.296;2022-07-09T08:21:07;21.60;69.30
68235;DHT22;55052;52.056;5.296;2022-07-09T08:23:33;21.60;69.20
68235;DHT22;55052;52.056;5.296;2022-07-09T08:26:19;21.60;68.90
68235;DHT22;55052;52.056;5.296;2022-07-09T08:28:45;21.60;68.90
68235;DHT22;55052;52.056;5.296;2022-07-09T08:31:12;21.60;68.80
68235;DHT22;55052;52.056;5.296;2022-07-09T08:33:39;21.70;68.70
68235;DHT22;55052;52.056;5.296;2022-07-09T08:36:06;21.70;68.60
68235;DHT22;55052;52.056;5.296;2022-07-09T08:38:33;21.70;68.50
68235;DHT22;55052;52.056;5.296;2022-07-09T08:41:01;21.70;68.60
68235;DHT22;55052;52.056;5.296;2022-07-09T08:43:33;21.70;68.60
68235;DHT22;55052;52.056;5.296;2022-07-09T08:46:00;21.80;68.60
68235;DHT22;55052;52.056;5.296;2022-07-09T08:48:27;21.70;68.50
68235;DHT22;55052;52.056;5.296;2022-07-09T08:50:55;21.70;68.40
68235;DHT22;55052;52.056;5.296;2022-07-09T08:53:23;21.70;68.20
68235;DHT22;55052;52.056;5.296;2022-07-09T08:55:50;21.70;68.20
68235;DHT22;55052;52.056;5.296;2022-07-09T08:58:17;21.80;67.90
68235;DHT22;55052;52.056;5.296;2022-07-09T09:00:44;21.80;67.70
68235;DHT22;55052;52.056;5.296;2022-07-09T09:03:11;21.90;67.50
68235;DHT22;55052;52.056;5.296;2022-07-09T09:05:37;21.90;67.00
68235;DHT22;55052;52.056;5.296;2022-07-09T09:08:20;22.00;66.30
68235;DHT22;55052;52.056;5.296;2022-07-09T09:10:50;22.10;65.80
68235;DHT22;55052;52.056;5.296;2022-07-09T09:13:17;22.10;65.50
68235;DHT22;55052;52.056;5.296;2022-07-09T09:15:44;22.20;65.20
68235;DHT22;55052;52.056;5.296;2022-07-09T09:18:11;22.30;64.80
68235;DHT22;55052;52.056;5.296;2022-07-09T09:20:44;22.30;64.70
68235;DHT22;55052;52.056;5.296;2022-07-09T09:23:16;22.30;64.50
68235;DHT22;55052;52.056;5.296;2022-07-09T09:25:43;22.30;64.40
68235;DHT22;55052;52.056;5.296;2022-07-09T09:28:11;22.30;64.50
68235;DHT22;55052;52.056;5.296;2022-07-09T09:30:42;22.40;64.30
68235;DHT22;55052;52.056;5.296;2022-07-09T09:33:14;22.40;64.20
68235;DHT22;55052;52.056;5.296;2022-07-09T09:35:45;22.40;64.20
68235;DHT22;55052;52.056;5.296;2022-07-09T09:38:12;22.50;64.30
68235;DHT22;55052;52.056;5.296;2022-07-09T09:40:44;22.50;64.10
68235;DHT22;55052;52.056;5.296;2022-07-09T09:43:14;22.60;63.90
68235;DHT22;55052;52.056;5.296;2022-07-09T09:45:47;22.60;63.60
68235;DHT22;55052;52.056;5.296;2022-07-09T09:48:16;22.70;63.20
68235;DHT22;55052;52.056;5.296;2022-07-09T09:50:46;22.70;63.10
68235;DHT22;55052;52.056;5.296;2022-07-09T09:53:15;22.70;63.10
68235;DHT22;55052;52.056;5.296;2022-07-09T09:55:42;22.70;62.80
68235;DHT22;55052;52.056;5.296;2022-07-09T09:58:11;22.70;62.50
68235;DHT22;55052;52.056;5.296;2022-07-09T10:00:38;22.70;62.50
68235;DHT22;55052;52.056;5.296;2022-07-09T10:03:06;22.70;62.20
68235;DHT22;55052;52.056;5.296;2022-07-09T10:05:33;22.70;61.80
68235;DHT22;55052;52.056;5.296;2022-07-09T10:08:00;22.70;61.60
68235;DHT22;55052;52.056;5.296;2022-07-09T10:10:27;22.70;61.70
68235;DHT22;55052;52.056;5.296;2022-07-09T10:12:53;22.70;61.50
68235;DHT22;55052;52.056;5.296;2022-07-09T10:15:22;22.70;61.10
68235;DHT22;55052;52.056;5.296;2022-07-09T10:17:49;22.70;60.80
68235;DHT22;55052;52.056;5.296;2022-07-09T10:20:16;22.60;60.60
68235;DHT22;55052;52.056;5.296;2022-07-09T10:22:44;22.60;60.60
68235;DHT22;55052;52.056;5.296;2022-07-09T10:25:29;22.50;60.50
68235;DHT22;55052;52.056;5.296;2022-07-09T10:27:56;22.50;60.40
68235;DHT22;55052;52.056;5.296;2022-07-09T10:30:32;22.40;60.70
68235;DHT22;55052;52.056;5.296;2022-07-09T10:33:12;22.40;60.80
68235;DHT22;55052;52.056;5.296;2022-07-09T10:35:45;22.40;60.50
68235;DHT22;55052;52.056;5.296;2022-07-09T10:38:13;22.40;60.60
68235;DHT22;55052;52.056;5.296;2022-07-09T10:40:42;22.50;60.60
68235;DHT22;55052;52.056;5.296;2022-07-09T10:43:10;22.50;60.20
68235;DHT22;55052;52.056;5.296;2022-07-09T10:45:45;22.60;60.10
68235;DHT22;55052;52.056;5.296;2022-07-09T10:48:13;22.60;60.00
68235;DHT22;55052;52.056;5.296;2022-07-09T10:50:42;22.70;60.00
68235;DHT22;55052;52.056;5.296;2022-07-09T10:53:10;22.80;59.60
68235;DHT22;55052;52.056;5.296;2022-07-09T10:55:42;22.80;59.50
68235;DHT22;55052;52.056;5.296;2022-07-09T10:58:17;22.90;59.60
68235;DHT22;55052;52.056;5.296;2022-07-09T11:00:44;23.00;59.70
68235;DHT22;55052;52.056;5.296;2022-07-09T11:03:11;23.00;59.70
68235;DHT22;55052;52.056;5.296;2022-07-09T11:05:45;23.10;59.20
68235;DHT22;55052;52.056;5.296;2022-07-09T11:08:12;23.10;59.00
68235;DHT22;55052;52.056;5.296;2022-07-09T11:10:39;23.10;58.90
68235;DHT22;55052;52.056;5.296;2022-07-09T11:13:07;23.20;58.80
68235;DHT22;55052;52.056;5.296;2022-07-09T11:15:37;23.20;58.10
68235;DHT22;55052;52.056;5.296;2022-07-09T11:18:11;23.20;57.80
68235;DHT22;55052;52.056;5.296;2022-07-09T11:20:42;23.20;57.10
68235;DHT22;55052;52.056;5.296;2022-07-09T11:23:15;23.20;57.30
68235;DHT22;55052;52.056;5.296;2022-07-09T11:25:43;23.20;57.00
68235;DHT22;55052;52.056;5.296;2022-07-09T11:31:01;23.20;56.90
68235;DHT22;55052;52.056;5.296;2022-07-09T11:33:29;23.20;56.50
68235;DHT22;55052;52.056;5.296;2022-07-09T11:36:16;23.20;56.60
68235;DHT22;55052;52.056;5.296;2022-07-09T11:38:50;23.20;56.20
68235;DHT22;55052;52.056;5.296;2022-07-09T11:41:17;23.30;56.30
68235;DHT22;55052;52.056;5.296;2022-07-09T11:43:51;23.30;55.90
68235;DHT22;55052;52.056;5.296;2022-07-09T11:46:18;23.30;55.40
68235;DHT22;55052;52.056;5.296;2022-07-09T11:48:53;23.30;55.10
68235;DHT22;55052;52.056;5.296;2022-07-09T11:53:54;23.30;54.60
68235;DHT22;55052;52.056;5.296;2022-07-09T11:56:20;23.30;54.90
68235;DHT22;55052;52.056;5.296;2022-07-09T11:58:51;23.40;54.70
68235;DHT22;55052;52.056;5.296;2022-07-09T12:01:18;23.40;54.70
68235;DHT22;55052;52.056;5.296;2022-07-09T12:03:50;23.50;54.50
68235;DHT22;55052;52.056;5.296;2022-07-09T12:06:17;23.50;54.30
68235;DHT22;55052;52.056;5.296;2022-07-09T12:08:43;23.50;54.00
68235;DHT22;55052;52.056;5.296;2022-07-09T12:11:10;23.50;53.70
68235;DHT22;55052;52.056;5.296;2022-07-09T12:13:37;23.50;53.20
68235;DHT22;55052;52.056;5.296;2022-07-09T12:16:04;23.40;52.70
68235;DHT22;55052;52.056;5.296;2022-07-09T12:18:31;23.40;53.10
68235;DHT22;55052;52.056;5.296;2022-07-09T12:20:58;23.40;53.40
68235;DHT22;55052;52.056;5.296;2022-07-09T12:23:25;23.40;53.30
68235;DHT22;55052;52.056;5.296;2022-07-09T12:25:52;23.50;53.20
68235;DHT22;55052;52.056;5.296;2022-07-09T12:28:19;23.60;53.00
68235;DHT22;55052;52.056;5.296;2022-07-09T12:30:45;23.60;52.10
68235;DHT22;55052;52.056;5.296;2022-07-09T12:33:12;23.60;52.10
68235;DHT22;55052;52.056;5.296;2022-07-09T12:35:39;23.60;51.50
68235;DHT22;55052;52.056;5.296;2022-07-09T12:38:06;23.70;51.60
68235;DHT22;55052;52.056;5.296;2022-07-09T12:40:33;23.70;51.70
68235;DHT22;55052;52.056;5.296;2022-07-09T12:43:00;23.80;51.80
68235;DHT22;55052;52.056;5.296;2022-07-09T12:45:27;23.90;51.70
68235;DHT22;55052;52.056;5.296;2022-07-09T12:47:53;23.90;52.50
68235;DHT22;55052;52.056;5.296;2022-07-09T12:50:20;23.90;51.50
68235;DHT22;55052;52.056;5.296;2022-07-09T12:52:47;24.00;51.40
68235;DHT22;55052;52.056;5.296;2022-07-09T12:55:14;24.00;51.10
68235;DHT22;55052;52.056;5.296;2022-07-09T12:57:41;24.00;50.50
68235;DHT22;55052;52.056;5.296;2022-07-09T13:00:08;24.00;50.30
68235;DHT22;55052;52.056;5.296;2022-07-09T13:02:35;24.00;50.00
68235;DHT22;55052;52.056;5.296;2022-07-09T13:05:02;24.00;50.10
68235;DHT22;55052;52.056;5.296;2022-07-09T13:07:28;24.00;50.20
68235;DHT22;55052;52.056;5.296;2022-07-09T13:09:55;23.90;50.00
68235;DHT22;55052;52.056;5.296;2022-07-09T13:12:22;23.90;49.70
68235;DHT22;55052;52.056;5.296;2022-07-09T13:14:49;23.90;49.80
68235;DHT22;55052;52.056;5.296;2022-07-09T13:17:15;23.90;49.80
68235;DHT22;55052;52.056;5.296;2022-07-09T13:19:57;23.90;49.70
68235;DHT22;55052;52.056;5.296;2022-07-09T13:22:23;23.90;49.90
68235;DHT22;55052;52.056;5.296;2022-07-09T13:24:50;24.00;48.40
68235;DHT22;55052;52.056;5.296;2022-07-09T13:27:17;24.10;48.30
68235;DHT22;55052;52.056;5.296;2022-07-09T13:29:46;24.10;48.20
68235;DHT22;55052;52.056;5.296;2022-07-09T13:32:12;24.30;48.80
68235;DHT22;55052;52.056;5.296;2022-07-09T13:34:48;24.60;48.80
68235;DHT22;55052;52.056;5.296;2022-07-09T13:37:16;24.90;48.50
68235;DHT22;55052;52.056;5.296;2022-07-09T13:39:43;25.10;47.90
68235;DHT22;55052;52.056;5.296;2022-07-09T13:42:09;25.30;47.70
68235;DHT22;55052;52.056;5.296;2022-07-09T13:44:36;25.50;47.30
68235;DHT22;55052;52.056;5.296;2022-07-09T13:47:03;25.70;47.40
68235;DHT22;55052;52.056;5.296;2022-07-09T13:49:30;25.70;46.60
68235;DHT22;55052;52.056;5.296;2022-07-09T13:51:57;25.70;46.60
68235;DHT22;55052;52.056;5.296;2022-07-09T13:54:24;25.60;46.90
68235;DHT22;55052;52.056;5.296;2022-07-09T13:56:51;25.50;46.90
68235;DHT22;55052;52.056;5.296;2022-07-09T13:59:18;25.40;47.00
68235;DHT22;55052;52.056;5.296;2022-07-09T14:01:44;25.30;47.60
68235;DHT22;55052;52.056;5.296;2022-07-09T14:04:11;25.20;48.40
68235;DHT22;55052;52.056;5.296;2022-07-09T14:06:38;25.20;49.10
68235;DHT22;55052;52.056;5.296;2022-07-09T14:09:12;25.20;49.80
68235;DHT22;55052;52.056;5.296;2022-07-09T14:11:39;25.10;49.90
68235;DHT22;55052;52.056;5.296;2022-07-09T14:14:05;25.10;50.10
68235;DHT22;55052;52.056;5.296;2022-07-09T14:16:33;25.10;50.30
68235;DHT22;55052;52.056;5.296;2022-07-09T14:19:00;25.00;50.30
68235;DHT22;55052;52.056;5.296;2022-07-09T14:21:26;25.00;50.10
68235;DHT22;55052;52.056;5.296;2022-07-09T14:23:54;25.00;50.10
68235;DHT22;55052;52.056;5.296;2022-07-09T14:26:21;24.90;50.20
68235;DHT22;55052;52.056;5.296;2022-07-09T14:28:49;24.80;50.00
68235;DHT22;55052;52.056;5.296;2022-07-09T14:31:16;24.70;50.10
68235;DHT22;55052;52.056;5.296;2022-07-09T14:33:43;24.60;50.00
68235;DHT22;55052;52.056;5.296;2022-07-09T14:36:09;24.50;50.30
68235;DHT22;55052;52.056;5.296;2022-07-09T14:38:36;24.40;50.40
68235;DHT22;55052;52.056;5.296;2022-07-09T14:41:04;24.30;50.60
68235;DHT22;55052;52.056;5.296;2022-07-09T14:43:31;24.30;50.50
68235;DHT22;55052;52.056;5.296;2022-07-09T14:45:57;24.20;50.70
68235;DHT22;55052;52.056;5.296;2022-07-09T14:48:24;24.20;50.60
68235;DHT22;55052;52.056;5.296;2022-07-09T14:50:52;24.10;50.30
68235;DHT22;55052;52.056;5.296;2022-07-09T14:53:19;24.10;50.20
68235;DHT22;55052;52.056;5.296;2022-07-09T14:55:45;24.00;50.10
68235;DHT22;55052;52.056;5.296;2022-07-09T14:58:12;23.90;50.00
68235;DHT22;55052;52.056;5.296;2022-07-09T15:00:39;23.80;50.10
68235;DHT22;55052;52.056;5.296;2022-07-09T15:03:06;23.80;50.20
68235;DHT22;55052;52.056;5.296;2022-07-09T15:05:33;23.70;50.40
68235;DHT22;55052;52.056;5.296;2022-07-09T15:08:06;23.70;50.20
68235;DHT22;55052;52.056;5.296;2022-07-09T15:10:33;23.50;50.00
68235;DHT22;55052;52.056;5.296;2022-07-09T15:13:00;23.40;50.80
68235;DHT22;55052;52.056;5.296;2022-07-09T15:15:27;23.40;50.40
68235;DHT22;55052;52.056;5.296;2022-07-09T15:17:54;23.20;50.60
68235;DHT22;55052;52.056;5.296;2022-07-09T15:20:21;23.10;50.60
68235;DHT22;55052;52.056;5.296;2022-07-09T15:22:47;23.10;51.00
68235;DHT22;55052;52.056;5.296;2022-07-09T15:25:15;23.10;51.20
68235;DHT22;55052;52.056;5.296;2022-07-09T15:27:42;23.00;51.10
68235;DHT22;55052;52.056;5.296;2022-07-09T15:30:09;22.90;51.10
68235;DHT22;55052;52.056;5.296;2022-07-09T15:32:36;22.90;51.30
68235;DHT22;55052;52.056;5.296;2022-07-09T15:35:03;22.80;50.70
68235;DHT22;55052;52.056;5.296;2022-07-09T15:37:30;22.70;50.50